Wetterdaten: Woche 24.01.11 - 30.01.11 (KW4)
Datum Zeit Temperatur Luftfeuchte Luftdruck Niederschlag Windrichtung Sonnenschein Solar Wind
24.01.2011 00:00 -8,5 C 90 % 1026,3 hPa 0,0 l/m N 0,00 h 0 W/m 0,0 km/h (0 Bft)
24.01.2011 01:00 -8,6 C 91 % 1026,3 hPa 0,0 l/m N 0,00 h 0 W/m 0,0 km/h (0 Bft)
24.01.2011 02:00 -8,3 C 92 % 1026,4 hPa 0,0 l/m N 0,00 h 0 W/m 0,9 km/h (0 Bft)
24.01.2011 03:00 -7,9 C 92 % 1026,5 hPa 0,0 l/m SW 0,00 h 0 W/m 2,1 km/h (1 Bft)
24.01.2011 04:00 -7,2 C 93 % 1026,2 hPa 0,0 l/m SW 0,00 h 0 W/m 5,6 km/h (1 Bft)
24.01.2011 05:00 -6,3 C 93 % 1026,2 hPa 0,0 l/m S-SW 0,00 h 0 W/m 7,6 km/h (2 Bft)
24.01.2011 06:00 -6,1 C 91 % 1026,3 hPa 0,0 l/m S-SW 0,00 h 0 W/m 6,4 km/h (2 Bft)
24.01.2011 07:00 -5,8 C 92 % 1026,4 hPa 0,0 l/m S-SW 0,00 h 0 W/m 7,0 km/h (2 Bft)
24.01.2011 08:00 -5,8 C 92 % 1026,8 hPa 0,0 l/m S-SW 0,00 h 11 W/m 5,8 km/h (1 Bft)
24.01.2011 09:00 -5,5 C 93 % 1026,5 hPa 0,2 l/m S 0,00 h 30 W/m 6,0 km/h (2 Bft)
24.01.2011 10:00 -4,8 C 92 % 1026,5 hPa 0,0 l/m S-SW 0,00 h 55 W/m 6,8 km/h (2 Bft)
24.01.2011 11:00 -3,9 C 91 % 1026,3 hPa 0,0 l/m S-SW 0,00 h 68 W/m 8,4 km/h (2 Bft)
24.01.2011 12:00 -3,2 C 91 % 1025,7 hPa 0,2 l/m S-SW 0,00 h 84 W/m 9,3 km/h (2 Bft)
24.01.2011 13:00 -2,6 C 90 % 1025,1 hPa 0,0 l/m S-SW 0,00 h 72 W/m 10,1 km/h (2 Bft)
24.01.2011 14:00 -2,3 C 90 % 1024,5 hPa 0,2 l/m S 0,00 h 56 W/m 9,5 km/h (2 Bft)
24.01.2011 15:00 -2,3 C 91 % 1024,3 hPa 0,0 l/m S-SW 0,00 h 36 W/m 9,5 km/h (2 Bft)
24.01.2011 16:00 -2,4 C 92 % 1024,0 hPa 0,0 l/m S-SW 0,00 h 15 W/m 7,1 km/h (2 Bft)
24.01.2011 17:00 -2,6 C 93 % 1023,9 hPa 0,0 l/m S-SW 0,00 h 0 W/m 6,0 km/h (2 Bft)
24.01.2011 18:00 -2,8 C 94 % 1024,0 hPa 0,0 l/m S-SW 0,00 h 0 W/m 5,2 km/h (1 Bft)
24.01.2011 19:00 -2,8 C 95 % 1024,1 hPa 0,0 l/m S-SW 0,00 h 0 W/m 5,9 km/h (2 Bft)
24.01.2011 20:00 -2,9 C 95 % 1024,0 hPa 0,0 l/m S-SW 0,00 h 0 W/m 7,1 km/h (2 Bft)
24.01.2011 21:00 -2,9 C 95 % 1023,5 hPa 0,0 l/m S-SW 0,00 h 0 W/m 5,7 km/h (1 Bft)
24.01.2011 22:00 -2,9 C 96 % 1023,2 hPa 0,0 l/m SW 0,00 h 0 W/m 6,0 km/h (2 Bft)
24.01.2011 23:00 -2,8 C 96 % 1022,7 hPa 0,0 l/m S-SW 0,00 h 0 W/m 6,0 km/h (2 Bft)
25.01.2011 00:00 -2,6 C 96 % 1022,0 hPa 0,0 l/m S-SW 0,00 h 0 W/m 6,1 km/h (2 Bft)
25.01.2011 01:00 -2,4 C 96 % 1021,5 hPa 0,0 l/m S-SW 0,00 h 0 W/m 5,1 km/h (1 Bft)
25.01.2011 02:00 -2,5 C 96 % 1021,1 hPa 0,0 l/m S 0,00 h 0 W/m 4,7 km/h (1 Bft)
25.01.2011 03:00 -2,3 C 96 % 1020,7 hPa 0,0 l/m S-SW 0,00 h 0 W/m 5,3 km/h (1 Bft)
25.01.2011 04:00 -2,4 C 96 % 1020,1 hPa 0,0 l/m S-SW 0,00 h 0 W/m 8,8 km/h (2 Bft)
25.01.2011 05:00 -2,4 C 96 % 1019,6 hPa 0,0 l/m S-SW 0,00 h 0 W/m 6,8 km/h (2 Bft)
25.01.2011 06:00 -2,3 C 96 % 1019,2 hPa 0,0 l/m S-SW 0,00 h 0 W/m 5,9 km/h (2 Bft)
25.01.2011 07:00 -2,2 C 97 % 1019,0 hPa 0,0 l/m SO 0,00 h 0 W/m 4,0 km/h (1 Bft)
25.01.2011 08:00 -2,1 C 97 % 1018,9 hPa 0,0 l/m S 0,00 h 11 W/m 3,5 km/h (1 Bft)
25.01.2011 09:00 -1,6 C 96 % 1018,6 hPa 0,0 l/m S-SO 0,00 h 49 W/m 8,6 km/h (2 Bft)
25.01.2011 10:00 -0,5 C 94 % 1018,1 hPa 0,0 l/m W-SW 0,00 h 87 W/m 19,8 km/h (4 Bft)
25.01.2011 11:00 -0,0 C 91 % 1017,6 hPa 0,0 l/m SW 0,25 h 182 W/m 15,7 km/h (3 Bft)
25.01.2011 12:00 0,1 C 90 % 1016,7 hPa 0,0 l/m W-SW 0,00 h 162 W/m 21,0 km/h (4 Bft)
25.01.2011 13:00 0,6 C 88 % 1015,5 hPa 0,0 l/m W-SW 0,67 h 278 W/m 20,4 km/h (4 Bft)
25.01.2011 14:00 0,5 C 87 % 1014,5 hPa 0,0 l/m W-SW 0,25 h 158 W/m 26,0 km/h (4 Bft)
25.01.2011 15:00 0,2 C 88 % 1014,0 hPa 0,0 l/m W-SW 0,00 h 62 W/m 23,4 km/h (4 Bft)
25.01.2011 16:00 0,1 C 89 % 1013,6 hPa 0,0 l/m SW 0,00 h 20 W/m 23,3 km/h (4 Bft)
25.01.2011 17:00 0,1 C 88 % 1013,2 hPa 0,0 l/m W-SW 0,00 h 0 W/m 21,3 km/h (4 Bft)
25.01.2011 18:00 -0,0 C 89 % 1012,5 hPa 0,0 l/m W-SW 0,00 h 0 W/m 25,1 km/h (4 Bft)
25.01.2011 19:00 -0,1 C 90 % 1012,2 hPa 0,0 l/m W-SW 0,00 h 0 W/m 23,9 km/h (4 Bft)
25.01.2011 20:00 -0,1 C 90 % 1012,0 hPa 0,0 l/m W-SW 0,00 h 0 W/m 25,6 km/h (4 Bft)
25.01.2011 21:00 -0,2 C 91 % 1011,8 hPa 0,0 l/m W-SW 0,00 h 0 W/m 23,8 km/h (4 Bft)
25.01.2011 22:00 -0,2 C 92 % 1011,7 hPa 0,0 l/m W-SW 0,00 h 0 W/m 24,1 km/h (4 Bft)
25.01.2011 23:00 -0,2 C 92 % 1011,5 hPa 0,0 l/m W-SW 0,00 h 0 W/m 23,3 km/h (4 Bft)
26.01.2011 00:00 -0,1 C 91 % 1010,9 hPa 0,0 l/m W-SW 0,00 h 0 W/m 24,7 km/h (4 Bft)
26.01.2011 01:00 -0,1 C 91 % 1010,5 hPa 0,0 l/m W-SW 0,00 h 0 W/m 23,3 km/h (4 Bft)
26.01.2011 02:00 -0,1 C 91 % 1010,0 hPa 0,0 l/m W-SW 0,00 h 0 W/m 20,5 km/h (4 Bft)
26.01.2011 03:00 -0,1 C 91 % 1009,8 hPa 0,0 l/m W 0,00 h 0 W/m 18,4 km/h (3 Bft)
26.01.2011 04:00 -0,1 C 92 % 1009,5 hPa 0,0 l/m W-SW 0,00 h 0 W/m 17,4 km/h (3 Bft)
26.01.2011 05:00 -0,1 C 93 % 1009,3 hPa 0,2 l/m W 0,00 h 0 W/m 13,7 km/h (3 Bft)
26.01.2011 06:00 -0,2 C 95 % 1009,1 hPa 0,2 l/m W-SW 0,00 h 0 W/m 8,0 km/h (2 Bft)
26.01.2011 07:00 -0,2 C 95 % 1008,9 hPa 0,0 l/m W-SW 0,00 h 0 W/m 9,0 km/h (2 Bft)
26.01.2011 08:00 -0,2 C 95 % 1008,9 hPa 0,0 l/m SW 0,00 h 12 W/m 7,8 km/h (2 Bft)
26.01.2011 09:00 0,4 C 93 % 1008,8 hPa 0,0 l/m SW 0,00 h 35 W/m 12,6 km/h (3 Bft)
26.01.2011 10:00 1,0 C 91 % 1008,5 hPa 0,0 l/m S-SW 0,00 h 132 W/m 13,0 km/h (3 Bft)
26.01.2011 11:00 1,2 C 89 % 1008,2 hPa 0,0 l/m SW 0,25 h 174 W/m 17,0 km/h (3 Bft)
26.01.2011 12:00 1,3 C 89 % 1007,6 hPa 0,0 l/m W-SW 0,00 h 177 W/m 16,5 km/h (3 Bft)
26.01.2011 13:00 1,3 C 91 % 1007,2 hPa 0,0 l/m W-SW 0,00 h 125 W/m 12,6 km/h (3 Bft)
26.01.2011 14:00 0,9 C 95 % 1006,8 hPa 0,2 l/m SW 0,00 h 80 W/m 10,4 km/h (2 Bft)
26.01.2011 15:00 0,6 C 97 % 1006,9 hPa 0,8 l/m SW 0,00 h 59 W/m 8,9 km/h (2 Bft)
26.01.2011 16:00 0,7 C 97 % 1007,2 hPa 0,4 l/m SW 0,00 h 18 W/m 3,2 km/h (1 Bft)
26.01.2011 17:00 0,6 C 97 % 1007,5 hPa 0,2 l/m N 0,00 h 0 W/m 2,7 km/h (1 Bft)
26.01.2011 18:00 0,4 C 97 % 1007,9 hPa 0,0 l/m N 0,00 h 0 W/m 1,3 km/h (1 Bft)
26.01.2011 19:00 0,3 C 97 % 1008,4 hPa 0,0 l/m N 0,00 h 0 W/m 1,7 km/h (1 Bft)
26.01.2011 20:00 0,2 C 97 % 1008,7 hPa 0,0 l/m N 0,00 h 0 W/m 0,0 km/h (0 Bft)
26.01.2011 21:00 0,1 C 97 % 1009,1 hPa 0,0 l/m N 0,00 h 0 W/m 0,0 km/h (0 Bft)
26.01.2011 22:00 0,1 C 97 % 1009,2 hPa 0,0 l/m N 0,00 h 0 W/m 0,3 km/h (0 Bft)
26.01.2011 23:00 -0,0 C 98 % 1009,5 hPa 0,0 l/m N 0,00 h 0 W/m 0,4 km/h (0 Bft)
27.01.2011 00:00 -0,2 C 98 % 1009,7 hPa 0,0 l/m N 0,00 h 0 W/m 0,3 km/h (0 Bft)
27.01.2011 01:00 -0,2 C 98 % 1009,9 hPa 0,0 l/m N 0,00 h 0 W/m 1,1 km/h (0 Bft)
27.01.2011 02:00 -0,1 C 98 % 1010,1 hPa 0,0 l/m N 0,00 h 0 W/m 1,1 km/h (0 Bft)
27.01.2011 03:00 0,1 C 98 % 1010,1 hPa 0,0 l/m O-NO 0,00 h 0 W/m 3,3 km/h (1 Bft)
27.01.2011 04:00 0,2 C 98 % 1010,4 hPa 0,0 l/m O-NO 0,00 h 0 W/m 5,6 km/h (1 Bft)
27.01.2011 05:00 0,2 C 98 % 1010,7 hPa 0,0 l/m O-NO 0,00 h 0 W/m 4,4 km/h (1 Bft)
27.01.2011 06:00 0,2 C 98 % 1011,1 hPa 0,0 l/m O-NO 0,00 h 0 W/m 4,4 km/h (1 Bft)
27.01.2011 07:00 0,1 C 98 % 1011,5 hPa 0,0 l/m O-NO 0,00 h 0 W/m 5,3 km/h (1 Bft)
27.01.2011 08:00 -0,1 C 98 % 1012,1 hPa 0,0 l/m O-NO 0,00 h 11 W/m 6,0 km/h (2 Bft)
27.01.2011 09:00 -0,1 C 98 % 1012,7 hPa 0,0 l/m N-NO 0,00 h 30 W/m 6,3 km/h (2 Bft)
27.01.2011 10:00 -0,0 C 98 % 1013,2 hPa 0,0 l/m NO 0,00 h 61 W/m 5,2 km/h (1 Bft)
27.01.2011 11:00 0,1 C 98 % 1013,4 hPa 0,0 l/m NO 0,00 h 73 W/m 7,0 km/h (2 Bft)
27.01.2011 12:00 0,0 C 99 % 1013,5 hPa 0,0 l/m NO 0,00 h 68 W/m 8,8 km/h (2 Bft)
27.01.2011 13:00 -0,1 C 98 % 1013,2 hPa 0,0 l/m NO 0,00 h 70 W/m 11,7 km/h (2 Bft)
27.01.2011 14:00 -0,2 C 98 % 1013,1 hPa 0,0 l/m NO 0,00 h 55 W/m 13,8 km/h (3 Bft)
27.01.2011 15:00 -0,3 C 98 % 1013,1 hPa 0,0 l/m NO 0,00 h 21 W/m 13,3 km/h (3 Bft)
27.01.2011 16:00 -0,6 C 97 % 1013,3 hPa 0,0 l/m NO 0,00 h 8 W/m 14,8 km/h (3 Bft)
27.01.2011 17:00 -0,9 C 97 % 1013,6 hPa 0,0 l/m O-NO 0,00 h 0 W/m 16,0 km/h (3 Bft)
27.01.2011 18:00 -1,3 C 97 % 1013,9 hPa 0,0 l/m O-NO 0,00 h 0 W/m 15,2 km/h (3 Bft)
27.01.2011 19:00 -1,4 C 96 % 1014,0 hPa 0,0 l/m NO 0,00 h 0 W/m 12,6 km/h (3 Bft)
27.01.2011 20:00 -1,5 C 96 % 1014,3 hPa 0,0 l/m NO 0,00 h 0 W/m 10,9 km/h (2 Bft)
27.01.2011 21:00 -1,4 C 97 % 1014,6 hPa 0,0 l/m NO 0,00 h 0 W/m 11,0 km/h (2 Bft)
27.01.2011 22:00 -1,2 C 97 % 1014,7 hPa 0,0 l/m O-NO 0,00 h 0 W/m 12,6 km/h (3 Bft)
27.01.2011 23:00 -1,0 C 95 % 1014,6 hPa 0,0 l/m O 0,00 h 0 W/m 16,2 km/h (3 Bft)
28.01.2011 00:00 -0,9 C 94 % 1014,5 hPa 0,0 l/m NO 0,00 h 0 W/m 15,8 km/h (3 Bft)
28.01.2011 01:00 -1,1 C 94 % 1014,6 hPa 0,0 l/m O-NO 0,00 h 0 W/m 16,8 km/h (3 Bft)
28.01.2011 02:00 -1,4 C 94 % 1014,8 hPa 0,0 l/m O-NO 0,00 h 0 W/m 16,0 km/h (3 Bft)
28.01.2011 03:00 -1,7 C 93 % 1015,0 hPa 0,0 l/m NO 0,00 h 0 W/m 17,8 km/h (3 Bft)
28.01.2011 04:00 -1,9 C 93 % 1015,1 hPa 0,0 l/m O-NO 0,00 h 0 W/m 16,0 km/h (3 Bft)
28.01.2011 05:00 -2,1 C 93 % 1015,2 hPa 0,0 l/m O-NO 0,00 h 0 W/m 15,0 km/h (3 Bft)
28.01.2011 06:00 -2,1 C 94 % 1015,4 hPa 0,0 l/m O-NO 0,00 h 0 W/m 15,4 km/h (3 Bft)
28.01.2011 07:00 -2,1 C 93 % 1015,8 hPa 0,0 l/m O-NO 0,00 h 0 W/m 14,6 km/h (3 Bft)
28.01.2011 08:00 -2,1 C 93 % 1016,3 hPa 0,0 l/m O-NO 0,00 h 10 W/m 14,4 km/h (3 Bft)
28.01.2011 09:00 -2,0 C 93 % 1016,7 hPa 0,0 l/m O 0,00 h 29 W/m 16,0 km/h (3 Bft)
28.01.2011 10:00 -2,1 C 93 % 1017,1 hPa 0,0 l/m O-NO 0,00 h 51 W/m 16,1 km/h (3 Bft)
28.01.2011 11:00 -2,1 C 92 % 1017,1 hPa 0,0 l/m O 0,00 h 72 W/m 14,9 km/h (3 Bft)
28.01.2011 12:00 -2,2 C 92 % 1017,0 hPa 0,0 l/m O-NO 0,00 h 78 W/m 16,1 km/h (3 Bft)
28.01.2011 13:00 -2,3 C 91 % 1017,1 hPa 0,0 l/m O 0,00 h 81 W/m 16,9 km/h (3 Bft)
28.01.2011 14:00 -2,4 C 91 % 1016,9 hPa 0,0 l/m O-NO 0,00 h 68 W/m 15,4 km/h (3 Bft)
28.01.2011 15:00 -2,7 C 91 % 1017,3 hPa 0,0 l/m NO 0,00 h 40 W/m 16,2 km/h (3 Bft)
28.01.2011 16:00 -3,0 C 91 % 1017,6 hPa 0,0 l/m O 0,00 h 11 W/m 14,9 km/h (3 Bft)
28.01.2011 17:00 -3,3 C 92 % 1017,9 hPa 0,0 l/m O 0,00 h 0 W/m 15,2 km/h (3 Bft)
28.01.2011 18:00 -3,6 C 92 % 1018,0 hPa 0,0 l/m NO 0,00 h 0 W/m 17,3 km/h (3 Bft)
28.01.2011 19:00 -3,6 C 93 % 1018,0 hPa 0,0 l/m O-NO 0,00 h 0 W/m 13,7 km/h (3 Bft)
28.01.2011 20:00 -3,4 C 93 % 1017,8 hPa 0,0 l/m O 0,00 h 0 W/m 11,2 km/h (2 Bft)
28.01.2011 21:00 -3,3 C 93 % 1017,9 hPa 0,0 l/m O 0,00 h 0 W/m 12,5 km/h (3 Bft)
28.01.2011 22:00 -3,2 C 92 % 1017,9 hPa 0,0 l/m O 0,00 h 0 W/m 8,4 km/h (2 Bft)
28.01.2011 23:00 -3,2 C 93 % 1017,9 hPa 0,0 l/m O-SO 0,00 h 0 W/m 6,2 km/h (2 Bft)
29.01.2011 00:00 -3,3 C 92 % 1017,6 hPa 0,0 l/m O-SO 0,00 h 0 W/m 8,9 km/h (2 Bft)
29.01.2011 01:00 -3,4 C 93 % 1017,5 hPa 0,0 l/m SO 0,00 h 0 W/m 4,8 km/h (1 Bft)
29.01.2011 02:00 -3,4 C 93 % 1017,4 hPa 0,0 l/m SO 0,00 h 0 W/m 4,5 km/h (1 Bft)
29.01.2011 03:00 -3,6 C 93 % 1017,2 hPa 0,0 l/m SO 0,00 h 0 W/m 1,9 km/h (1 Bft)
29.01.2011 04:00 -3,7 C 93 % 1017,0 hPa 0,0 l/m SO 0,00 h 0 W/m 2,7 km/h (1 Bft)
29.01.2011 05:00 -3,8 C 94 % 1017,0 hPa 0,0 l/m N 0,00 h 0 W/m 1,3 km/h (1 Bft)
29.01.2011 06:00 -3,8 C 94 % 1016,9 hPa 0,0 l/m O 0,00 h 0 W/m 3,5 km/h (1 Bft)
29.01.2011 07:00 -4,0 C 93 % 1016,9 hPa 0,0 l/m SW 0,00 h 0 W/m 3,6 km/h (1 Bft)
29.01.2011 08:00 -4,3 C 94 % 1017,1 hPa 0,0 l/m SO 0,00 h 11 W/m 2,9 km/h (1 Bft)
29.01.2011 09:00 -4,2 C 94 % 1017,0 hPa 0,0 l/m O-SO 0,00 h 41 W/m 4,9 km/h (1 Bft)
29.01.2011 10:00 -3,8 C 93 % 1017,0 hPa 0,0 l/m O-SO 0,00 h 85 W/m 2,4 km/h (1 Bft)
29.01.2011 11:00 -3,3 C 91 % 1016,9 hPa 0,0 l/m SO 0,00 h 100 W/m 3,5 km/h (1 Bft)
29.01.2011 12:00 -3,3 C 90 % 1016,3 hPa 0,0 l/m O 0,00 h 100 W/m 4,8 km/h (1 Bft)
29.01.2011 13:00 -3,3 C 90 % 1015,7 hPa 0,0 l/m O-NO 0,08 h 191 W/m 6,3 km/h (2 Bft)
29.01.2011 14:00 -3,3 C 90 % 1015,2 hPa 0,0 l/m O-NO 0,00 h 109 W/m 9,1 km/h (2 Bft)
29.01.2011 15:00 -3,7 C 90 % 1015,1 hPa 0,0 l/m O-NO 0,00 h 56 W/m 9,0 km/h (2 Bft)
29.01.2011 16:00 -3,7 C 90 % 1015,0 hPa 0,0 l/m NO 0,92 h 114 W/m 9,2 km/h (2 Bft)
29.01.2011 17:00 -3,7 C 90 % 1015,2 hPa 0,0 l/m O-NO 0,08 h 12 W/m 7,9 km/h (2 Bft)
29.01.2011 18:00 -4,1 C 91 % 1015,4 hPa 0,0 l/m O-NO 0,00 h 0 W/m 9,3 km/h (2 Bft)
29.01.2011 19:00 -4,3 C 92 % 1015,7 hPa 0,0 l/m O-NO 0,00 h 0 W/m 9,2 km/h (2 Bft)
29.01.2011 20:00 -4,7 C 93 % 1015,8 hPa 0,0 l/m O-SO 0,00 h 0 W/m 10,7 km/h (2 Bft)
29.01.2011 21:00 -4,9 C 93 % 1015,8 hPa 0,0 l/m NO 0,00 h 0 W/m 9,1 km/h (2 Bft)
29.01.2011 22:00 -5,2 C 92 % 1015,6 hPa 0,0 l/m O-NO 0,00 h 0 W/m 9,3 km/h (2 Bft)
29.01.2011 23:00 -5,8 C 92 % 1015,6 hPa 0,0 l/m O-NO 0,00 h 0 W/m 8,0 km/h (2 Bft)
30.01.2011 00:00 -6,1 C 93 % 1015,7 hPa 0,0 l/m O-NO 0,00 h 0 W/m 4,5 km/h (1 Bft)
30.01.2011 01:00 -6,1 C 94 % 1015,5 hPa 0,0 l/m N-NO 0,00 h 0 W/m 7,7 km/h (2 Bft)
30.01.2011 02:00 -6,3 C 95 % 1015,4 hPa 0,0 l/m NO 0,00 h 0 W/m 7,8 km/h (2 Bft)
30.01.2011 03:00 -6,6 C 95 % 1015,0 hPa 0,0 l/m NO 0,00 h 0 W/m 6,9 km/h (2 Bft)
30.01.2011 04:00 -7,0 C 95 % 1015,2 hPa 0,0 l/m NO 0,00 h 0 W/m 8,8 km/h (2 Bft)
30.01.2011 05:00 -7,5 C 94 % 1015,4 hPa 0,0 l/m NO 0,00 h 0 W/m 8,3 km/h (2 Bft)
30.01.2011 06:00 -8,0 C 94 % 1015,8 hPa 0,0 l/m NO 0,00 h 0 W/m 10,5 km/h (2 Bft)
30.01.2011 07:00 -8,3 C 94 % 1016,2 hPa 0,0 l/m NO 0,00 h 0 W/m 6,4 km/h (2 Bft)
30.01.2011 08:00 -8,2 C 94 % 1016,5 hPa 0,0 l/m NO 0,00 h 22 W/m 6,8 km/h (2 Bft)
30.01.2011 09:00 -7,7 C 94 % 1016,6 hPa 0,0 l/m NO 0,00 h 65 W/m 6,3 km/h (2 Bft)
30.01.2011 10:00 -7,4 C 93 % 1016,9 hPa 0,0 l/m NO 0,00 h 98 W/m 8,3 km/h (2 Bft)
30.01.2011 11:00 -7,1 C 93 % 1017,3 hPa 0,0 l/m N-NO 0,00 h 124 W/m 9,4 km/h (2 Bft)
30.01.2011 12:00 -6,9 C 93 % 1017,1 hPa 0,0 l/m NO 0,00 h 147 W/m 9,7 km/h (2 Bft)
30.01.2011 13:00 -6,8 C 92 % 1016,9 hPa 0,0 l/m N-NO 0,00 h 146 W/m 11,0 km/h (2 Bft)
30.01.2011 14:00 -6,4 C 91 % 1016,9 hPa 0,0 l/m O-NO 0,00 h 132 W/m 9,7 km/h (2 Bft)
30.01.2011 15:00 -6,0 C 91 % 1017,1 hPa 0,0 l/m O-NO 0,00 h 78 W/m 9,8 km/h (2 Bft)
30.01.2011 16:00 -5,8 C 90 % 1017,3 hPa 0,0 l/m O-NO 0,00 h 25 W/m 8,3 km/h (2 Bft)
30.01.2011 17:00 -6,0 C 91 % 1017,7 hPa 0,0 l/m O 0,00 h 6 W/m 11,1 km/h (2 Bft)
30.01.2011 18:00 -6,1 C 92 % 1018,3 hPa 0,0 l/m O 0,00 h 0 W/m 12,1 km/h (2 Bft)
30.01.2011 19:00 -6,1 C 92 % 1018,9 hPa 0,0 l/m O 0,00 h 0 W/m 9,3 km/h (2 Bft)
30.01.2011 20:00 -6,0 C 92 % 1019,3 hPa 0,0 l/m O 0,00 h 0 W/m 7,9 km/h (2 Bft)
30.01.2011 21:00 -6,0 C 91 % 1019,8 hPa 0,0 l/m O-NO 0,00 h 0 W/m 9,0 km/h (2 Bft)
30.01.2011 22:00 -6,0 C 92 % 1019,9 hPa 0,0 l/m NO 0,00 h 0 W/m 5,2 km/h (1 Bft)
30.01.2011 23:00 -5,9 C 92 % 1019,9 hPa 0,0 l/m O-SO 0,00 h 0 W/m 5,2 km/h (1 Bft)
Min-Datum _ 24.01.11 25.01.11 26.01.11 - - - - 24.01.11
_ Min-Zeit 00:30 14:20 14:15 - - - - 00:00
Minimum _ -8,6 C 86 % 1006,7 hPa - - - - 0,0 km/h (0 Bft)
Max-Datum _ 26.01.11 26.01.11 24.01.11 26.01.11 - 25.01.11 25.01.11 25.01.11
_ Max-Zeit 12:15 08:55 08:30 15:10 - 11:10 13:35 22:30
Maximum _ 1,4 C 100 % 1026,9 hPa 0,8 l/m - 0,08 h 550 W/m 37,0 km/h
W (5 Bft)
Durchschnitt _ -2,7 C 93 % 1016,1 hPa #2,6 l/m O-NO #2:30 h 73 W/m 9,9 km/h (2 Bft)